Hlavní strana
METAR-TAF:

METAR-TAF

Letiště :

Dubaj, Spojené arabské emiráty

Mezinárodní letiště Dubaj

zeměpisná šířka: 25-15-10N, zeměpisná délka: 055-21-52E, výška: 8 m

Aktuální stav počasí

Zpráva byla vytvořena před 27 minutami, v 16:00 UTC
Východní vítr 4 kt
Teplota 32°C
Vlhkost vzduchu 36%
Tlak 1009 hPa
Viditelnost 10 km a více
Žádná oblačnost pod 1500 m, nevyskytují se cumulonimby.

METAR: OMDB 251600Z 09004KT CAVOK 32/15 Q1009 NOSIG

Čas: 20:27 (16:27 UTC)

Předpověď počasí

Zpráva byla vytvořena před 5 hodinami a 33 minutami, v 10:54 UTC
Předpověď platná od 25 v 12 UTC do 26 v 18 UTC
Severozápadní vítr 15 kt
Viditelnost: 8000 m
Změna
od 25 v 15 UTC do 25 v 17 UTC
Jihovýchodní vítr 5 kt
Změna
od 26 v 07 UTC do 26 v 09 UTC
Severozápadní vítr 13 kt
Změna
od 26 v 15 UTC do 26 v 17 UTC
Východojihovýchodní vítr 5 kt

TAF: OMDB 251054Z 2512/2618 32015KT 8000 NSC BECMG 2515/2517 14005KT BECMG 2607/2609 32013KT BECMG 2615/2617 12005KT

Stav a předpovědi počasí z více než 4 000 letišť (zprávy METAR a TAF).

Červené a žluté tečky na mapě představují dostupné meteorologické stanice.

Když kurzor umístíte na tečku, zobrazí se název stanice.

Pak kliknutím zobrazíte stav a předpověď počasí.

Chcete-li změnit mapu, kliknutím na zelené tlačítko se znaménkem +mapu přiblížíte, kliknutím na zelené tlačítko se znaménkem – mapu oddálíte a kliknutím na zelené šipky přejdete na sousední mapy.


METAR-TAF: